Time;durP1;ratioP1;P1;durP2;ratioP2;P2;SDS_P1;SDS_P2;PMS_P1;PMS_P2;Temp;Humidity;BMP_temperature;BMP_pressure;BME280_temperature;BME280_humidity;BME280_pressure;Samples;Min_cycle;Max_cycle;Signal;HPM_P1;HPM_P2
2021/11/03 00:01:55;;;;;;;12.88;7.25;;;;;;;13.92;74.41;99822.09;4992738;28;19914;-61
2021/11/03 00:04:41;;;;;;;11.98;7.05;;;;;;;13.94;75.05;99828.81;4992888;28;20054;-60
2021/11/03 00:07:29;;;;;;;12.40;6.90;;;;;;;13.94;75.41;99817.06;4984211;28;20057;-61
2021/11/03 00:10:16;;;;;;;13.43;7.32;;;;;;;13.93;75.94;99824.47;4992559;28;20057;-60
2021/11/03 00:13:01;;;;;;;11.10;6.75;;;;;;;13.93;75.92;99834.63;4992596;28;20404;-61
2021/11/03 00:15:46;;;;;;;;;;;;;;;13.92;75.54;99824.81;4993254;28;20045;-60
2021/11/03 00:18:31;;;;;;;9.75;3.92;;;;;;;13.82;72.65;99823.47;4999122;28;20320;-61
2021/11/03 00:21:16;;;;;;;12.13;6.00;;;;;;;13.82;71.46;99834.38;4992606;28;20415;-60
2021/11/03 00:24:04;;;;;;;9.60;6.00;;;;;;;13.80;71.61;99824.97;4992493;28;20057;-61
2021/11/03 00:26:49;;;;;;;8.75;5.88;;;;;;;13.78;70.89;99828.06;4992401;28;20050;-61
2021/11/03 00:29:34;;;;;;;6.75;4.53;;;;;;;13.81;72.55;99829.31;4984265;28;20053;-61
2021/11/03 00:32:19;;;;;;;16.15;5.30;;;;;;;13.83;73.91;99824.25;4992450;28;20045;-61
2021/11/03 00:35:05;;;;;;;9.93;5.78;;;;;;;13.79;72.62;99823.41;4992358;28;20061;-61
2021/11/03 00:37:50;;;;;;;9.95;5.82;;;;;;;13.75;71.46;99828.00;4992561;28;20045;-61
2021/11/03 00:40:35;;;;;;;;;;;;;;;13.74;71.59;99832.66;4992854;28;20123;-61
2021/11/03 00:43:21;;;;;;;13.77;5.55;;;;;;;13.77;72.85;99822.94;4992315;28;19914;-61
2021/11/03 00:46:07;;;;;;;10.70;5.82;;;;;;;13.78;74.12;99832.72;4992250;28;20415;-61
2021/11/03 00:48:51;;;;;;;7.18;3.63;;;;;;;13.73;73.06;99835.75;4984315;28;20045;-61
2021/11/03 00:51:36;;;;;;;;;;;;;;;13.66;70.39;99839.91;4984556;28;20053;-61
2021/11/03 00:54:21;;;;;;;11.70;4.32;;;;;;;13.66;70.41;99837.16;4984107;28;20290;-60
2021/11/03 00:57:06;;;;;;;;;;;;;;;13.65;70.43;99840.28;4978196;28;20057;-61
2021/11/03 00:59:51;;;;;;;10.32;5.57;;;;;;;13.64;71.52;99842.22;4992344;28;19914;-61
2021/11/03 01:02:36;;;;;;;8.52;4.22;;;;;;;13.67;73.22;99838.75;4983929;28;20054;-61
2021/11/03 01:05:22;;;;;;;;;;;;;;;13.67;73.45;99846.97;4992684;28;20045;-61
2021/11/03 01:08:13;;;;;;;8.15;4.60;;;;;;;13.67;73.12;99852.41;4984325;28;20531;-61
2021/11/03 01:10:58;;;;;;;7.38;4.55;;;;;;;13.66;73.52;99842.63;4992067;28;20053;-60
2021/11/03 01:13:44;;;;;;;7.60;4.95;;;;;;;13.63;71.63;99843.38;4983377;28;20057;-60
2021/11/03 01:16:28;;;;;;;;;;;;;;;13.63;71.97;99839.84;4979533;28;20049;-60
2021/11/03 01:19:13;;;;;;;8.60;4.97;;;;;;;13.65;73.51;99834.81;4992265;28;20367;-61
2021/11/03 01:21:58;;;;;;;;;;;;;;;13.66;73.77;99837.16;4987712;28;20045;-60
2021/11/03 01:24:43;;;;;;;6.38;4.68;;;;;;;13.63;72.87;99837.09;4987285;28;19918;-61
2021/11/03 01:27:28;;;;;;;5.00;3.30;;;;;;;13.65;74.72;99832.88;4987273;28;20077;-60
2021/11/03 01:30:15;;;;;;;5.55;2.92;;;;;;;13.67;74.88;99825.09;4987260;28;20061;-61
2021/11/03 01:33:01;;;;;;;8.35;4.85;;;;;;;13.67;74.67;99811.44;4987072;28;20041;-60
2021/11/03 01:35:47;;;;;;;7.00;4.45;;;;;;;13.67;74.89;99805.97;4984032;28;20057;-61
2021/11/03 01:38:32;;;;;;;8.55;4.65;;;;;;;13.67;74.94;99800.50;4987078;28;20053;-60
2021/11/03 01:41:18;;;;;;;8.05;5.15;;;;;;;13.65;74.82;99808.28;4995060;28;20053;-61
2021/11/03 01:44:09;;;;;;;8.60;4.38;;;;;;;13.67;74.58;99808.72;4987070;28;20057;-61
2021/11/03 01:47:32;;;;;;;8.27;4.68;;;;;;;13.68;75.62;99804.03;4980943;28;20400;-61
2021/11/03 01:50:30;;;;;;;9.27;3.58;;;;;;;13.67;76.09;99800.50;4986863;28;20057;-61
2021/11/03 01:53:41;;;;;;;7.07;4.90;;;;;;;13.67;75.85;99799.72;4986841;28;20045;-61
2021/11/03 01:56:27;;;;;;;10.05;4.78;;;;;;;13.64;76.00;99801.25;4982437;28;20050;-60
2021/11/03 01:59:19;;;;;;;8.00;4.43;;;;;;;13.66;76.08;99809.84;4994758;28;20053;-60
2021/11/03 02:02:06;;;;;;;5.63;3.65;;;;;;;13.67;75.95;99805.97;5000446;28;20443;-60
2021/11/03 02:04:51;;;;;;;6.35;3.30;;;;;;;13.65;76.39;99813.75;5001023;28;20061;-60
2021/11/03 02:07:37;;;;;;;;;;;;;;;13.66;76.17;99798.16;4986894;28;20049;-61
2021/11/03 02:10:22;;;;;;;6.03;3.45;;;;;;;13.63;76.27;99798.84;4994716;28;19914;-61
2021/11/03 02:13:12;;;;;;;6.72;4.25;;;;;;;13.63;76.12;99796.91;4986369;28;20041;-61
2021/11/03 02:15:58;;;;;;;6.78;3.53;;;;;;;13.62;76.02;99797.28;4982933;28;20058;-61
2021/11/03 02:18:43;;;;;;;5.13;3.13;;;;;;;13.61;75.97;99785.53;4986346;28;20053;-61
2021/11/03 02:21:38;;;;;;;8.82;4.00;;;;;;;13.63;76.19;99794.19;4982698;28;20053;-61
2021/11/03 02:24:35;;;;;;;7.50;3.83;;;;;;;13.61;76.28;99796.47;4986052;28;20069;-60
2021/11/03 02:27:25;;;;;;;5.68;3.58;;;;;;;13.62;76.47;99797.28;4994380;28;20049;-60
2021/11/03 02:30:12;;;;;;;6.28;3.40;;;;;;;13.61;76.22;99795.72;4994205;28;20054;-61
2021/11/03 02:33:04;;;;;;;4.70;3.22;;;;;;;13.62;76.57;99798.06;4985959;28;20522;-61
2021/11/03 02:35:58;;;;;;;6.80;4.13;;;;;;;13.61;76.47;99791.00;4983313;28;20049;-60
2021/11/03 02:38:44;;;;;;;5.47;3.20;;;;;;;13.60;76.82;99789.44;4994041;28;20435;-61
2021/11/03 02:41:34;;;;;;;5.43;3.13;;;;;;;13.63;77.01;99783.25;4985333;28;20793;-61
2021/11/03 02:44:23;;;;;;;5.90;2.90;;;;;;;13.61;76.80;99782.81;4985903;28;20061;-60
2021/11/03 02:47:08;;;;;;;5.00;3.10;;;;;;;13.61;76.81;99785.53;4993733;28;20506;-60
2021/11/03 02:49:53;;;;;;;5.95;3.17;;;;;;;13.61;76.45;99773.84;4994338;28;20054;-61
2021/11/03 02:52:38;;;;;;;4.88;3.03;;;;;;;13.62;76.86;99769.94;4985544;28;20062;-60
2021/11/03 02:55:25;;;;;;;6.90;2.35;;;;;;;13.61;76.59;99774.63;4983766;28;20057;-60
2021/11/03 02:58:10;;;;;;;6.43;3.78;;;;;;;13.60;76.50;99767.59;4993704;28;20049;-61
2021/11/03 03:00:55;;;;;;;4.70;3.45;;;;;;;13.61;76.50;99769.16;4993860;28;20510;-60
2021/11/03 03:03:44;;;;;;;;;;;;;;;13.61;76.31;99769.16;4994104;28;20069;-61
2021/11/03 03:06:30;;;;;;;5.32;3.20;;;;;;;13.60;76.19;99764.06;4980759;28;19918;-60
2021/11/03 03:09:17;;;;;;;4.68;3.17;;;;;;;13.60;76.10;99767.59;4993370;28;20057;-61
2021/11/03 03:12:05;;;;;;;6.95;3.42;;;;;;;13.60;76.44;99761.34;4985200;28;20502;-61
2021/11/03 03:14:55;;;;;;;5.28;3.30;;;;;;;13.58;76.74;99753.50;4993419;28;20434;-60
2021/11/03 03:17:40;;;;;;;5.45;3.33;;;;;;;13.59;76.58;99752.34;4985266;28;20049;-60
2021/11/03 03:20:26;;;;;;;6.05;3.45;;;;;;;13.59;76.84;99733.22;4985155;28;20057;-61
2021/11/03 03:23:11;;;;;;;;;;;;;;;13.60;76.44;99734.81;4974725;28;20050;-60
2021/11/03 03:25:57;;;;;;;4.43;2.75;;;;;;;13.58;76.40;99731.66;4962354;28;19918;-61
2021/11/03 03:28:44;;;;;;;6.22;4.00;;;;;;;13.57;76.28;99719.13;4965625;28;20049;-60
2021/11/03 03:31:29;;;;;;;6.95;4.15;;;;;;;13.58;76.15;99715.25;4965633;28;20050;-61
2021/11/03 03:34:19;;;;;;;6.38;3.40;;;;;;;13.58;75.54;99717.97;4965642;28;20049;-61
2021/11/03 03:37:05;;;;;;;7.10;3.63;;;;;;;13.56;75.46;99705.84;4959250;28;20050;-61
2021/11/03 03:39:53;;;;;;;7.30;4.32;;;;;;;13.58;75.53;99703.53;4965443;28;20057;-60
2021/11/03 03:42:39;;;;;;;5.57;3.80;;;;;;;13.56;75.13;99698.41;4961452;28;20050;-61
2021/11/03 03:45:24;;;;;;;8.05;4.45;;;;;;;13.57;74.69;99701.94;4963560;28;20081;-61
2021/11/03 03:48:12;;;;;;;5.88;3.58;;;;;;;13.57;75.10;99697.28;4965368;28;20046;-61
2021/11/03 03:50:57;;;;;;;6.68;5.00;;;;;;;13.56;74.79;99698.41;4965222;28;20054;-61
2021/11/03 03:53:42;;;;;;;6.40;4.28;;;;;;;13.59;74.43;99705.91;4973386;28;20050;-61
2021/11/03 03:56:28;;;;;;;6.50;4.20;;;;;;;13.59;73.69;99710.59;4960698;28;20054;-60
2021/11/03 03:59:13;;;;;;;6.55;4.03;;;;;;;13.59;73.13;99714.09;4965148;28;20050;-61
2021/11/03 04:01:59;;;;;;;6.93;4.55;;;;;;;13.59;73.26;99707.84;4965219;28;20050;-60
2021/11/03 04:04:44;;;;;;;7.20;4.05;;;;;;;13.60;73.50;99715.69;4965129;28;20057;-60
2021/11/03 04:07:29;;;;;;;;;;;;;;;13.61;72.39;99708.28;4965643;28;20054;-61
2021/11/03 04:10:14;;;;;;;4.53;3.23;;;;;;;13.60;73.07;99707.50;4978720;28;19914;-61
2021/11/03 04:13:00;;;;;;;4.97;3.72;;;;;;;13.58;73.59;99709.78;4964940;28;20050;-59
2021/11/03 04:15:45;;;;;;;;;;;;;;;13.62;73.98;99720.78;4973623;28;20054;-61
2021/11/03 04:18:31;;;;;;;5.75;3.47;;;;;;;13.60;74.23;99714.91;4978795;28;19914;-60
2021/11/03 04:21:16;;;;;;;4.40;3.20;;;;;;;13.60;74.52;99721.16;4964865;28;20065;-59
2021/11/03 04:24:03;;;;;;;6.88;4.10;;;;;;;13.60;74.32;99725.81;4974720;28;20045;-60
2021/11/03 04:26:48;;;;;;;5.80;2.75;;;;;;;13.59;74.14;99719.56;4992418;28;20053;-61
2021/11/03 04:29:33;;;;;;;6.68;4.45;;;;;;;13.60;73.66;99723.88;4984373;28;20054;-61
2021/11/03 04:32:18;;;;;;;4.88;3.30;;;;;;;13.61;73.83;99719.97;4984269;28;20045;-61
2021/11/03 04:35:05;;;;;;;5.97;3.88;;;;;;;13.62;73.25;99727.03;4992444;28;20073;-61
2021/11/03 04:37:51;;;;;;;6.97;4.78;;;;;;;13.59;72.89;99718.78;4984206;28;20052;-60
2021/11/03 04:40:36;;;;;;;6.28;4.38;;;;;;;13.59;72.54;99711.38;4984265;28;20239;-61
2021/11/03 04:43:21;;;;;;;6.93;4.65;;;;;;;13.59;72.74;99702.38;5001727;23;20553;-60
2021/11/03 04:46:06;;;;;;;5.72;3.20;;;;;;;13.56;73.00;99703.88;5013305;28;20061;-60
2021/11/03 04:48:51;;;;;;;4.57;2.80;;;;;;;13.55;73.56;99696.06;5017275;28;20394;-60
2021/11/03 04:51:38;;;;;;;6.10;3.83;;;;;;;13.53;73.40;99690.97;5017245;28;20053;-60
2021/11/03 04:54:23;;;;;;;6.65;4.03;;;;;;;13.54;73.89;99689.00;5018009;28;20069;-59
2021/11/03 04:57:14;;;;;;;;;;;;;;;13.54;73.59;99675.38;5015809;28;20104;-60
2021/11/03 05:00:04;;;;;;;7.68;4.90;;;;;;;13.52;73.37;99678.44;5034900;28;19913;-61
2021/11/03 05:02:50;;;;;;;6.78;4.15;;;;;;;13.54;73.71;99680.81;5020842;28;20041;-60
2021/11/03 05:05:37;;;;;;;8.00;5.20;;;;;;;13.54;73.35;99681.63;5018627;28;20518;-60
2021/11/03 05:08:22;;;;;;;5.90;3.85;;;;;;;13.52;73.24;99678.44;5020905;28;20049;-60
2021/11/03 05:11:09;;;;;;;7.75;4.47;;;;;;;13.54;73.95;99681.63;5020689;28;20056;-60
2021/11/03 05:13:54;;;;;;;9.25;3.63;;;;;;;13.55;73.78;99668.75;5015180;28;20060;-60
2021/11/03 05:16:42;;;;;;;9.30;3.22;;;;;;;13.55;74.01;99668.75;5015289;28;20662;-60
2021/11/03 05:19:29;;;;;;;3.67;2.90;;;;;;;13.57;73.90;99667.22;5020585;28;20048;-60
2021/11/03 05:22:25;;;;;;;4.72;3.08;;;;;;;13.57;74.25;99671.91;5020406;28;20399;-59
2021/11/03 05:25:12;;;;;;;4.72;3.28;;;;;;;13.57;73.79;99661.75;5014841;28;20069;-60
2021/11/03 05:27:58;;;;;;;5.40;3.22;;;;;;;13.56;73.45;99678.53;5014810;28;20049;-60
2021/11/03 05:30:43;;;;;;;6.50;3.70;;;;;;;13.56;73.22;99664.88;5014833;28;20053;-60
2021/11/03 05:33:27;;;;;;;3.13;2.10;;;;;;;13.55;73.02;99666.03;5014736;28;20049;-61
2021/11/03 05:36:23;;;;;;;6.43;2.53;;;;;;;13.58;72.82;99660.63;5014720;28;20058;-60
2021/11/03 05:39:10;;;;;;;4.82;3.05;;;;;;;13.58;73.04;99668.81;5014584;28;20044;-60
2021/11/03 05:41:55;;;;;;;6.00;3.15;;;;;;;13.57;72.97;99664.50;5014815;28;20121;-60
2021/11/03 05:44:40;;;;;;;4.07;3.00;;;;;;;13.55;73.23;99655.88;5014825;28;20048;-60
2021/11/03 05:47:26;;;;;;;;;;;;;;;13.55;73.00;99663.28;5020354;28;20061;-60
2021/11/03 05:50:16;;;;;;;;;;;;;;;13.54;72.79;99667.97;5014869;28;19913;-60
2021/11/03 05:53:01;;;;;;;3.38;2.40;;;;;;;13.51;72.55;99665.94;5014362;28;19962;-65
2021/11/03 05:55:45;;;;;;;3.83;2.67;;;;;;;13.53;71.89;99662.84;5014453;28;20057;-63
2021/11/03 05:58:32;;;;;;;3.40;2.55;;;;;;;13.50;71.87;99664.38;5014317;28;20129;-64
2021/11/03 06:01:17;;;;;;;3.70;2.58;;;;;;;13.50;71.37;99666.31;5014295;28;20045;-62
2021/11/03 06:04:01;;;;;;;2.25;1.75;;;;;;;13.50;72.89;99675.31;5014091;28;20049;-62
2021/11/03 06:06:46;;;;;;;5.40;2.63;;;;;;;13.53;73.54;99677.28;5012871;28;20053;-62
2021/11/03 06:09:32;;;;;;;3.22;2.38;;;;;;;13.52;73.17;99672.19;5014043;28;20096;-62
2021/11/03 06:12:17;;;;;;;2.92;2.15;;;;;;;13.49;72.99;99670.97;5013992;28;20053;-62
2021/11/03 06:15:02;;;;;;;4.20;1.98;;;;;;;13.51;73.16;99687.03;5013709;28;20053;-62
2021/11/03 06:17:47;;;;;;;3.63;2.63;;;;;;;13.50;73.20;99683.50;5013882;28;20048;-62
2021/11/03 06:20:32;;;;;;;2.88;1.58;;;;;;;13.50;73.70;99686.22;5013740;28;20053;-62
2021/11/03 06:23:17;;;;;;;;;;;;;;;13.53;73.40;99690.16;5014172;28;20037;-62
2021/11/03 06:26:01;;;;;;;2.55;1.58;;;;;;;13.52;72.68;99694.84;5013766;28;20298;-62
2021/11/03 06:28:47;;;;;;;3.65;2.33;;;;;;;13.50;72.45;99701.81;5013707;28;20052;-62
2021/11/03 06:31:32;;;;;;;7.65;2.42;;;;;;;13.48;72.66;99693.97;5013554;28;20048;-62
2021/11/03 06:34:17;;;;;;;4.63;1.77;;;;;;;13.50;72.72;99701.81;5013603;28;20049;-62
2021/11/03 06:37:02;;;;;;;1.58;1.23;;;;;;;13.49;73.00;99700.22;5013288;28;20049;-62
2021/11/03 06:39:46;;;;;;;;;;;;;;;13.51;73.53;99706.13;5013850;28;20061;-62
2021/11/03 06:42:31;;;;;;;3.85;1.85;;;;;;;13.48;73.41;99706.84;5012784;28;19914;-63
2021/11/03 06:45:18;;;;;;;2.47;1.65;;;;;;;13.48;73.76;99702.16;5013385;28;20414;-62
2021/11/03 06:48:03;;;;;;;4.38;2.65;;;;;;;13.50;73.84;99697.16;5013158;28;20057;-61
2021/11/03 06:50:48;;;;;;;4.97;2.00;;;;;;;13.49;73.75;99703.75;5013463;28;20057;-61
2021/11/03 06:53:34;;;;;;;1.58;1.23;;;;;;;13.49;74.26;99698.28;5013262;28;20052;-62
2021/11/03 06:56:19;;;;;;;2.08;1.50;;;;;;;13.50;73.97;99696.34;5013208;28;20053;-61
2021/11/03 06:59:04;;;;;;;;;;;;;;;13.51;74.32;99690.50;5013549;28;20065;-62
2021/11/03 07:01:49;;;;;;;1.77;0.93;;;;;;;13.51;74.53;99703.41;5013197;28;19913;-62
2021/11/03 07:04:33;;;;;;;1.35;1.20;;;;;;;13.51;74.53;99697.94;5013083;28;20435;-61
2021/11/03 07:07:19;;;;;;;3.92;1.60;;;;;;;13.52;74.12;99696.78;5013068;28;20052;-63
2021/11/03 07:10:06;;;;;;;1.95;1.45;;;;;;;13.53;74.11;99701.88;5013012;28;20048;-63
2021/11/03 07:12:51;;;;;;;4.75;1.98;;;;;;;13.54;73.68;99708.94;5013087;28;20049;-62
2021/11/03 07:15:37;;;;;;;4.20;0.95;;;;;;;13.55;73.33;99710.53;5016029;28;20056;-62
2021/11/03 07:18:22;;;;;;;3.45;1.40;;;;;;;13.54;73.82;99708.94;5012022;28;20052;-62
2021/11/03 07:21:07;;;;;;;3.30;2.10;;;;;;;13.55;73.88;99712.47;5018350;28;20053;-64
2021/11/03 07:23:52;;;;;;;2.58;1.13;;;;;;;13.56;74.03;99705.84;5012528;28;20109;-63
2021/11/03 07:26:37;;;;;;;2.22;1.30;;;;;;;13.55;74.02;99702.31;5012630;28;20049;-63
2021/11/03 07:29:22;;;;;;;4.82;0.98;;;;;;;13.57;73.97;99699.22;5012646;28;20057;-62
2021/11/03 07:32:08;;;;;;;2.90;1.08;;;;;;;13.57;74.02;99699.22;5012632;28;20060;-63
2021/11/03 07:34:53;;;;;;;1.73;1.30;;;;;;;13.56;73.74;99700.38;5012474;28;20056;-62
2021/11/03 07:37:38;;;;;;;5.07;1.27;;;;;;;13.48;73.70;99687.72;5012568;28;20069;-64
2021/11/03 07:40:29;;;;;;;1.83;1.30;;;;;;;13.59;73.99;99694.19;5019003;28;20129;-63
2021/11/03 07:43:15;;;;;;;7.15;1.27;;;;;;;13.58;73.84;99700.81;5016016;28;20045;-63
2021/11/03 07:46:02;;;;;;;4.10;1.20;;;;;;;13.58;74.00;99701.59;5012173;28;20118;-64
2021/11/03 07:48:47;;;;;;;3.63;1.30;;;;;;;13.60;73.87;99693.84;5012406;28;20053;-62
2021/11/03 07:51:32;;;;;;;;;;;;;;;13.61;73.94;99691.91;5012712;28;20514;-64
2021/11/03 07:54:17;;;;;;;5.53;1.38;;;;;;;13.61;73.64;99687.19;5017894;28;20283;-64
2021/11/03 07:57:02;;;;;;;2.33;1.23;;;;;;;13.64;73.53;99691.16;5012007;28;20049;-64
2021/11/03 07:59:47;;;;;;;3.58;1.50;;;;;;;13.65;73.66;99682.63;5012242;28;20049;-64
2021/11/03 08:02:32;;;;;;;5.38;1.10;;;;;;;13.67;74.12;99685.78;5011950;28;20057;-63
2021/11/03 08:05:17;;;;;;;;;;;;;;;13.68;74.20;99692.81;5012571;28;20064;-63
2021/11/03 08:08:08;;;;;;;5.75;1.25;;;;;;;13.70;73.51;99679.59;5012179;28;20302;-61
2021/11/03 08:10:54;;;;;;;1.73;1.00;;;;;;;13.71;73.68;99672.19;5011966;28;20053;-65
2021/11/03 08:13:38;;;;;;;3.38;1.30;;;;;;;13.70;73.83;99679.59;5012050;28;20061;-63
2021/11/03 08:16:24;;;;;;;1.95;1.10;;;;;;;13.71;74.19;99677.66;5011958;28;20049;-64
2021/11/03 08:19:09;;;;;;;1.80;1.00;;;;;;;13.74;73.83;99684.31;5012374;28;20053;-64
2021/11/03 08:21:53;;;;;;;2.03;0.77;;;;;;;13.70;73.17;99679.59;5011988;28;20049;-64
2021/11/03 08:24:39;;;;;;;;;;;;;;;13.76;73.94;99692.97;5012509;28;20045;-62
2021/11/03 08:27:24;;;;;;;5.25;1.20;;;;;;;13.76;73.35;99676.56;5024941;28;20378;-62
2021/11/03 08:30:11;;;;;;;4.30;1.40;;;;;;;13.77;73.04;99678.13;5015558;28;20053;-61
2021/11/03 08:33:02;;;;;;;5.00;1.10;;;;;;;13.78;73.28;99674.25;5015949;28;20053;-61
2021/11/03 08:35:50;;;;;;;4.60;1.10;;;;;;;13.78;73.29;99664.13;5018730;28;20053;-61
2021/11/03 08:38:36;;;;;;;3.88;1.10;;;;;;;13.81;73.15;99674.34;5021445;28;20064;-62
2021/11/03 08:41:21;;;;;;;3.97;1.10;;;;;;;13.83;73.31;99671.22;5015902;28;20403;-61
2021/11/03 08:44:07;;;;;;;2.50;1.15;;;;;;;13.84;73.35;99656.41;5028503;28;20048;-62
2021/11/03 08:46:51;;;;;;;6.75;0.90;;;;;;;13.85;73.24;99653.31;5015669;28;20049;-63
2021/11/03 08:49:37;;;;;;;;;;;;;;;13.89;73.13;99658.84;5016286;28;20053;-63
2021/11/03 08:52:22;;;;;;;4.47;1.20;;;;;;;13.90;73.07;99663.97;5021321;28;19914;-62
2021/11/03 08:55:07;;;;;;;;;;;;;;;13.93;72.14;99655.03;5015945;28;20049;-61
2021/11/03 08:57:53;;;;;;;5.60;0.98;;;;;;;13.93;71.59;99646.03;5015720;28;19913;-61
2021/11/03 09:00:39;;;;;;;4.13;2.28;;;;;;;13.91;71.70;99651.88;5015493;28;20049;-62
2021/11/03 09:03:24;;;;;;;2.15;1.27;;;;;;;13.89;72.09;99664.31;5020916;28;20048;-62
2021/11/03 09:06:10;;;;;;;;;;;;;;;13.91;72.34;99654.63;5015790;28;20514;-63
2021/11/03 09:08:54;;;;;;;4.15;1.33;;;;;;;13.90;73.11;99649.50;5015644;28;19921;-63
2021/11/03 09:11:39;;;;;;;1.92;0.70;;;;;;;13.93;73.14;99648.75;5015358;28;20117;-62
2021/11/03 09:14:24;;;;;;;;;;;;;;;13.94;73.63;99637.47;5015578;28;20052;-63
2021/11/03 09:17:11;;;;;;;3.08;1.65;;;;;;;13.93;73.94;99632.38;5015139;28;19913;-63
2021/11/03 09:19:56;;;;;;;2.28;1.05;;;;;;;13.93;74.36;99632.38;5020666;28;20541;-63
2021/11/03 09:22:41;;;;;;;;;;;;;;;13.97;74.33;99638.69;5015408;28;20506;-63
2021/11/03 09:25:26;;;;;;;2.75;0.70;;;;;;;13.96;74.18;99637.91;5014863;28;20378;-63
2021/11/03 09:28:11;;;;;;;3.15;0.70;;;;;;;13.96;74.56;99650.78;5014904;28;20053;-63
2021/11/03 09:30:58;;;;;;;1.58;0.70;;;;;;;14.00;74.43;99648.91;5014842;28;20044;-63
2021/11/03 09:33:43;;;;;;;3.28;0.98;;;;;;;13.96;73.91;99637.13;5014901;28;20061;-63
2021/11/03 09:36:28;;;;;;;2.25;0.85;;;;;;;13.97;74.37;99628.53;5015346;28;20053;-62
2021/11/03 09:39:13;;;;;;;3.15;1.15;;;;;;;13.98;73.96;99629.31;5014754;28;20056;-63
2021/11/03 09:41:58;;;;;;;3.17;0.85;;;;;;;13.97;74.30;99627.75;5013871;28;20053;-63
2021/11/03 09:44:45;;;;;;;3.58;1.35;;;;;;;13.97;74.28;99627.75;5014473;28;20574;-63
2021/11/03 09:47:35;;;;;;;7.05;1.38;;;;;;;13.97;74.34;99628.53;5014612;28;20068;-63
2021/11/03 09:50:23;;;;;;;3.92;0.93;;;;;;;13.97;74.30;99628.53;5013394;28;20057;-61
2021/11/03 09:53:40;;;;;;;4.43;0.95;;;;;;;13.96;73.87;99620.72;5020019;28;20430;-62
2021/11/03 09:56:37;;;;;;;2.88;1.20;;;;;;;13.94;73.93;99618.34;5016339;28;20429;-62
2021/11/03 09:59:44;;;;;;;6.00;1.05;;;;;;;13.96;73.85;99621.50;5014328;28;20045;-63
2021/11/03 10:02:43;;;;;;;2.45;1.15;;;;;;;13.98;74.19;99618.41;5014615;28;20506;-63
2021/11/03 10:05:49;;;;;;;3.38;1.05;;;;;;;14.00;73.80;99625.09;5014382;28;20049;-63
2021/11/03 10:08:39;;;;;;;1.83;1.25;;;;;;;14.01;74.19;99617.69;5019801;28;20407;-63
2021/11/03 10:11:25;;;;;;;3.03;0.85;;;;;;;13.99;74.31;99615.31;5013001;28;20053;-63
2021/11/03 10:14:12;;;;;;;3.85;1.15;;;;;;;14.01;74.36;99612.22;5019624;28;20052;-61
2021/11/03 10:17:25;;;;;;;3.13;0.98;;;;;;;14.02;74.35;99608.31;5013778;28;20407;-63
2021/11/03 10:20:41;;;;;;;4.13;1.13;;;;;;;14.04;74.57;99586.88;5014137;28;20053;-62
2021/11/03 10:23:29;;;;;;;2.53;0.80;;;;;;;14.03;74.72;99590.75;5013391;28;20049;-63
2021/11/03 10:26:14;;;;;;;3.42;0.98;;;;;;;14.03;75.11;99583.34;5013757;28;20065;-63
2021/11/03 10:29:11;;;;;;;2.40;1.02;;;;;;;14.04;74.90;99579.47;5012781;28;20065;-61
2021/11/03 10:31:57;;;;;;;3.55;1.20;;;;;;;14.04;75.33;99567.75;5013862;28;20061;-62
2021/11/03 10:34:46;;;;;;;3.50;1.13;;;;;;;14.05;75.47;99566.59;5012765;28;20061;-62
2021/11/03 10:37:40;;;;;;;2.90;0.85;;;;;;;14.04;75.57;99574.00;5013615;28;20057;-60
2021/11/03 10:40:49;;;;;;;4.78;1.15;;;;;;;14.06;75.47;99573.66;5013546;28;20053;-60
2021/11/03 10:43:41;;;;;;;6.72;1.10;;;;;;;14.06;75.67;99560.78;5040058;23;20032;-78
2021/11/03 10:46:31;;;;;;;4.22;0.90;;;;;;;14.05;75.54;99559.19;5014505;28;20060;-79
2021/11/03 10:49:34;;;;;;;2.33;0.90;;;;;;;14.08;75.58;99563.91;5007141;28;20053;-78
2021/11/03 10:52:50;;;;;;;6.45;1.10;;;;;;;14.08;75.47;99552.19;5008163;28;20049;-80
2021/11/03 10:55:44;;;;;;;3.50;1.20;;;;;;;14.06;75.73;99549.03;5025243;28;20052;-79
2021/11/03 10:58:31;;;;;;;3.75;1.00;;;;;;;14.08;75.56;99554.91;5029919;28;20583;-80
2021/11/03 11:01:22;;;;;;;7.57;1.77;;;;;;;14.10;75.31;99547.16;5027629;28;20052;-80
2021/11/03 11:04:07;;;;;;;4.18;1.00;;;;;;;14.09;75.16;99542.81;5025453;28;20040;-79
2021/11/03 11:06:54;;;;;;;4.43;0.80;;;;;;;14.09;74.93;99534.63;5014767;28;20060;-80
2021/11/03 11:09:48;;;;;;;3.28;0.90;;;;;;;14.11;74.78;99524.91;5006192;28;20044;-79
2021/11/03 11:12:44;;;;;;;7.57;1.17;;;;;;;14.11;75.08;99513.19;5019320;28;20044;-80
2021/11/03 11:15:59;;;;;;;3.58;0.90;;;;;;;14.12;74.89;99510.06;5008159;28;20056;-79
2021/11/03 11:18:55;;;;;;;1.95;0.85;;;;;;;14.08;75.28;99495.56;5011230;28;20056;-81
2021/11/03 11:22:19;;;;;;;2.78;0.70;;;;;;;14.11;75.07;99497.56;5005276;28;20113;-83
2021/11/03 11:25:19;;;;;;;3.97;0.90;;;;;;;14.10;74.96;99498.72;5004836;28;20053;-81
2021/11/03 11:28:13;;;;;;;1.45;1.13;;;;;;;14.06;75.36;99483.44;5023404;28;20056;-81
2021/11/03 11:31:15;;;;;;;4.97;1.10;;;;;;;14.07;75.17;99491.25;5025104;28;20048;-83
2021/11/03 11:34:22;;;;;;;10.68;0.70;;;;;;;14.07;74.97;99482.25;5022004;28;20399;-79
2021/11/03 11:37:17;;;;;;;1.98;0.80;;;;;;;14.06;75.67;99484.22;5022162;28;20515;-81
2021/11/03 11:40:26;;;;;;;2.47;0.70;;;;;;;14.09;76.02;99482.69;5025270;28;20048;-82
2021/11/03 11:43:36;;;;;;;4.97;0.75;;;;;;;14.09;76.40;99482.69;5028998;28;20040;-79
2021/11/03 11:46:28;;;;;;;1.92;0.70;;;;;;;14.09;76.67;99478.00;5037853;28;20052;-82
2021/11/03 11:49:19;;;;;;;1.88;0.60;;;;;;;14.09;76.61;99475.28;5036944;28;20052;-81
2021/11/03 11:52:18;;;;;;;2.20;1.17;;;;;;;14.11;77.12;99461.25;5018309;28;20044;-82
2021/11/03 11:55:12;;;;;;;2.17;0.70;;;;;;;14.11;76.79;99462.03;5004643;28;20049;-81
2021/11/03 11:58:07;;;;;;;2.03;1.23;;;;;;;14.11;77.13;99461.25;5017121;28;20045;-81
2021/11/03 12:01:32;;;;;;;1.52;0.77;;;;;;;14.10;77.38;99452.25;5002047;28;20061;-80
2021/11/03 12:04:20;;;;;;;3.13;0.85;;;;;;;14.11;77.44;99453.84;4935249;28;20038;-81
2021/11/03 12:07:24;;;;;;;4.53;0.88;;;;;;;14.10;77.37;99451.47;5029978;28;20064;-81
2021/11/03 12:10:28;;;;;;;1.85;0.70;;;;;;;14.12;77.46;99455.38;5004344;28;20036;-81
2021/11/03 12:13:13;;;;;;;1.15;0.70;;;;;;;14.11;77.69;99451.09;5001717;28;20048;-82
2021/11/03 12:16:07;;;;;;;5.28;1.02;;;;;;;14.11;78.01;99447.56;5023098;28;20048;-81
2021/11/03 12:18:58;;;;;;;4.15;0.80;;;;;;;14.11;78.06;99442.91;5007499;28;20045;-81
2021/11/03 12:21:58;;;;;;;1.45;0.95;;;;;;;14.12;77.81;99424.53;5035771;28;20048;-81
2021/11/03 12:24:51;;;;;;;4.43;1.15;;;;;;;14.11;77.58;99421.03;5016034;28;20049;-81
2021/11/03 12:27:36;;;;;;;2.38;0.93;;;;;;;14.11;78.34;99420.25;5003666;28;20049;-81
2021/11/03 12:30:34;;;;;;;2.47;0.88;;;;;;;14.12;78.34;99410.84;5001833;28;20052;-81
2021/11/03 12:33:19;;;;;;;2.58;1.08;;;;;;;14.10;78.77;99391.31;5003547;28;20049;-80
2021/11/03 12:36:11;;;;;;;2.90;1.05;;;;;;;14.13;78.23;99376.91;5026927;28;20057;-81
2021/11/03 12:39:03;;;;;;;2.85;1.15;;;;;;;14.12;78.61;99358.91;5004472;28;20053;-81
2021/11/03 12:41:50;;;;;;;2.40;0.90;;;;;;;14.13;78.55;99363.22;5005526;28;20053;-81
2021/11/03 12:44:41;;;;;;;3.22;0.80;;;;;;;14.13;78.21;99352.28;5009929;28;20432;-81
2021/11/03 12:47:35;;;;;;;5.50;0.93;;;;;;;14.10;78.50;99348.38;5005025;28;20057;-81
2021/11/03 12:50:46;;;;;;;3.72;1.45;;;;;;;14.12;78.57;99343.31;5005268;28;20532;-81
2021/11/03 12:53:33;;;;;;;2.20;0.70;;;;;;;14.13;78.31;99360.50;5016633;28;20503;-81
2021/11/03 12:56:26;;;;;;;5.50;1.05;;;;;;;14.63;78.80;99352.91;5014957;28;20057;-79
2021/11/03 12:59:35;;;;;;;4.13;1.00;;;;;;;14.60;77.55;99339.97;5007241;28;20045;-79
2021/11/03 13:02:24;;;;;;;10.93;2.05;;;;;;;15.13;77.71;99322.09;5000965;28;20149;-80
2021/11/03 13:05:21;;;;;;;5.65;1.70;;;;;;;15.18;77.04;99313.53;5014563;28;20439;-80
2021/11/03 13:08:06;;;;;;;9.32;1.58;;;;;;;15.29;76.59;99319.84;5007705;28;20053;-80
2021/11/03 13:11:02;;;;;;;5.45;1.38;;;;;;;15.21;76.45;99301.00;5018616;28;20057;-80
2021/11/03 13:13:50;;;;;;;3.47;1.52;;;;;;;15.01;76.12;99300.47;5016923;28;20060;-81
2021/11/03 13:16:38;;;;;;;2.17;1.20;;;;;;;14.92;77.08;99295.31;5015919;28;20122;-80
2021/11/03 13:19:41;;;;;;;7.65;1.38;;;;;;;14.96;77.11;99289.88;4997474;28;20040;-80
2021/11/03 13:22:29;;;;;;;6.82;1.33;;;;;;;15.02;76.66;99274.66;5010910;28;20052;-80